createdAt,value
2019-03-16T00:03:01.461Z,2.60
2019-03-16T00:06:03.392Z,2.23
2019-03-16T00:09:06.048Z,2.10
2019-03-16T00:12:07.988Z,2.67
2019-03-16T00:15:09.957Z,1.77
2019-03-16T00:18:11.873Z,1.70
2019-03-16T00:21:13.802Z,1.70
2019-03-16T00:24:15.765Z,1.83
2019-03-16T00:27:17.715Z,2.03
2019-03-16T00:30:19.780Z,2.10
2019-03-16T00:33:21.674Z,1.80
2019-03-16T00:36:23.639Z,1.60
2019-03-16T00:39:25.557Z,2.00
2019-03-16T00:42:28.116Z,1.70
2019-03-16T00:45:30.720Z,1.83
2019-03-16T00:48:32.684Z,1.40
2019-03-16T00:51:34.604Z,2.07
2019-03-16T00:54:36.514Z,1.77
2019-03-16T00:57:38.598Z,1.50
2019-03-16T01:00:40.694Z,1.43
2019-03-16T01:03:42.635Z,1.63
2019-03-16T01:06:44.910Z,2.00
2019-03-16T01:09:47.919Z,1.97
2019-03-16T01:12:49.885Z,2.10
2019-03-16T01:15:51.806Z,1.90
2019-03-16T01:18:53.712Z,1.70
2019-03-16T01:21:55.591Z,2.17
2019-03-16T01:24:57.496Z,2.33
2019-03-16T01:27:59.901Z,1.90
2019-03-16T01:31:01.828Z,2.03
2019-03-16T01:34:03.759Z,1.60
2019-03-16T01:37:05.669Z,1.73
2019-03-16T01:40:09.211Z,2.57
2019-03-16T01:43:11.140Z,2.30
2019-03-16T01:46:13.708Z,1.77
2019-03-16T01:49:15.597Z,1.80
2019-03-16T01:52:17.460Z,2.23
2019-03-16T01:55:19.383Z,2.67
2019-03-16T01:58:21.351Z,1.90
2019-03-16T02:01:23.383Z,1.63
2019-03-16T02:04:25.318Z,2.30
2019-03-16T02:07:27.305Z,1.77
2019-03-16T02:10:29.337Z,1.70
2019-03-16T02:13:31.262Z,1.70
2019-03-16T02:16:33.678Z,1.50
2019-03-16T02:19:36.141Z,1.63
2019-03-16T02:22:38.422Z,2.30
2019-03-16T02:25:40.308Z,2.03
2019-03-16T02:28:42.319Z,2.00
2019-03-16T02:31:44.283Z,2.27
2019-03-16T02:34:46.225Z,1.73
2019-03-16T02:37:48.104Z,2.00
2019-03-16T02:40:50.121Z,2.37
2019-03-16T02:43:52.073Z,2.10
2019-03-16T02:46:54.398Z,2.20
2019-03-16T02:49:56.389Z,1.57
2019-03-16T02:52:58.347Z,2.30
2019-03-16T02:56:01.368Z,2.17
2019-03-16T02:59:03.286Z,1.77
2019-03-16T03:02:05.309Z,2.33
2019-03-16T03:05:08.911Z,1.80
2019-03-16T03:08:10.924Z,1.27
2019-03-16T03:11:12.872Z,1.30
2019-03-16T03:14:14.743Z,1.90
2019-03-16T03:17:16.638Z,1.47
2019-03-16T03:20:18.594Z,1.70
2019-03-16T03:23:20.527Z,1.30
2019-03-16T03:26:22.431Z,1.53
2019-03-16T03:29:24.367Z,1.63
2019-03-16T03:32:26.366Z,1.50
2019-03-16T03:35:29.452Z,1.53
2019-03-16T03:38:31.794Z,1.43
2019-03-16T03:41:34.276Z,1.80
2019-03-16T03:44:36.232Z,2.73
2019-03-16T03:47:38.178Z,1.20
2019-03-16T03:50:40.097Z,1.83
2019-03-16T03:53:42.083Z,1.60
2019-03-16T03:56:43.988Z,1.40
2019-03-16T03:59:46.344Z,1.87
2019-03-16T04:02:48.374Z,1.83
2019-03-16T04:05:50.350Z,2.33
2019-03-16T04:08:52.543Z,1.73
2019-03-16T04:11:54.460Z,1.63
2019-03-16T04:14:56.451Z,2.20
2019-03-16T04:17:58.350Z,3.07
2019-03-16T04:21:00.271Z,2.03
2019-03-16T04:24:02.228Z,1.83
2019-03-16T04:27:15.776Z,2.23
2019-03-16T04:30:10.081Z,1.60
2019-03-16T04:33:12.147Z,2.40
2019-03-16T04:36:14.031Z,1.60
2019-03-16T04:39:16.002Z,1.70
2019-03-16T04:42:17.954Z,2.07
2019-03-16T04:45:19.823Z,1.97
2019-03-16T04:48:22.396Z,3.47
2019-03-16T04:51:24.326Z,2.37
2019-03-16T04:54:26.265Z,2.50
2019-03-16T04:57:28.146Z,2.40
2019-03-16T05:00:30.290Z,2.93
2019-03-16T05:03:32.478Z,2.90
2019-03-16T05:06:34.465Z,2.40
2019-03-16T05:09:36.389Z,1.67
2019-03-16T05:12:38.541Z,2.80
2019-03-16T05:15:40.495Z,2.10
2019-03-16T05:18:42.639Z,1.93
2019-03-16T05:21:44.520Z,2.73
2019-03-16T05:24:46.481Z,2.27
2019-03-16T05:27:48.834Z,1.90
2019-03-16T05:30:50.710Z,2.00
2019-03-16T05:33:52.715Z,2.03
2019-03-16T05:36:56.051Z,2.87
2019-03-16T05:39:58.345Z,2.90
2019-03-16T05:43:00.197Z,2.43
2019-03-16T05:46:02.274Z,1.93
2019-03-16T05:49:04.171Z,2.10
2019-03-16T05:52:06.740Z,1.97
2019-03-16T05:55:08.835Z,3.47
2019-03-16T05:58:10.823Z,2.50
2019-03-16T06:01:12.746Z,2.10
2019-03-16T06:04:14.802Z,2.13
2019-03-16T06:07:16.706Z,2.77
2019-03-16T06:10:18.724Z,3.23
2019-03-16T06:13:20.642Z,3.33
2019-03-16T06:16:22.558Z,2.23
2019-03-16T06:19:24.514Z,3.23
2019-03-16T06:22:26.431Z,2.33
2019-03-16T06:25:28.399Z,3.63
2019-03-16T06:28:30.335Z,3.50
2019-03-16T06:31:32.359Z,2.60
2019-03-16T06:34:34.318Z,3.03
2019-03-16T06:37:36.283Z,2.53
2019-03-16T06:40:38.198Z,2.93
2019-03-16T06:43:40.246Z,3.70
2019-03-16T06:46:42.150Z,3.40
2019-03-16T06:49:44.101Z,2.83
2019-03-16T06:52:46.163Z,4.23
2019-03-16T06:55:48.161Z,2.83
2019-03-16T06:58:50.082Z,2.63
2019-03-16T07:01:52.239Z,3.40
2019-03-16T07:04:54.344Z,3.17
2019-03-16T07:07:56.353Z,2.87
2019-03-16T07:10:58.305Z,2.57
2019-03-16T07:14:01.339Z,1.63
2019-03-16T07:17:03.271Z,3.27
2019-03-16T07:20:08.103Z,2.23
2019-03-16T07:23:10.083Z,2.53
2019-03-16T07:26:15.092Z,2.53
2019-03-16T07:29:16.100Z,2.07
2019-03-16T07:32:18.067Z,2.57
2019-03-16T07:35:20.086Z,2.97
2019-03-16T07:38:22.039Z,2.80
2019-03-16T07:41:23.991Z,2.40
2019-03-16T07:44:25.910Z,3.13
2019-03-16T07:47:27.866Z,2.57
2019-03-16T07:50:29.796Z,2.67
2019-03-16T07:53:31.797Z,2.87
2019-03-16T07:56:33.714Z,4.67
2019-03-16T07:59:37.241Z,2.70
2019-03-16T08:02:39.512Z,3.77
2019-03-16T08:05:42.288Z,2.90
2019-03-16T08:08:46.247Z,2.33
2019-03-16T08:11:48.117Z,2.87
2019-03-16T08:14:50.052Z,2.53
2019-03-16T08:17:52.074Z,2.40
2019-03-16T08:20:53.981Z,2.70
2019-03-16T08:23:56.127Z,3.27
2019-03-16T08:26:58.046Z,4.10
2019-03-16T08:30:00.015Z,3.20
2019-03-16T08:33:01.901Z,3.57
2019-03-16T08:36:04.016Z,3.70
2019-03-16T08:39:06.428Z,4.07
2019-03-16T08:42:08.510Z,3.60
2019-03-16T08:45:10.545Z,3.70
2019-03-16T08:48:22.360Z,3.60
2019-03-16T08:51:16.457Z,3.80
2019-03-16T08:54:18.410Z,2.70
2019-03-16T08:57:20.332Z,2.43
2019-03-16T09:00:22.348Z,3.80
2019-03-16T09:03:24.304Z,3.07
2019-03-16T09:06:28.474Z,2.77
2019-03-16T09:09:30.423Z,3.63
2019-03-16T09:12:32.383Z,4.50
2019-03-16T09:15:34.435Z,3.07
2019-03-16T09:18:36.415Z,3.43
2019-03-16T09:21:38.352Z,3.33
2019-03-16T09:24:41.421Z,3.40
2019-03-16T09:27:43.317Z,3.50
2019-03-16T09:30:45.485Z,3.83
2019-03-16T09:33:47.424Z,3.00
2019-03-16T09:36:49.409Z,3.97
2019-03-16T09:39:51.551Z,3.87
2019-03-16T09:42:53.559Z,3.87
2019-03-16T09:45:55.521Z,2.97
2019-03-16T09:48:57.495Z,3.13
2019-03-16T09:51:59.473Z,3.90
2019-03-16T09:55:01.388Z,3.20
2019-03-16T09:58:03.403Z,2.60
2019-03-16T10:01:05.367Z,2.93
2019-03-16T10:04:07.314Z,2.60
2019-03-16T10:07:09.427Z,3.03
2019-03-16T10:10:14.612Z,2.53
2019-03-16T10:13:16.620Z,3.67
2019-03-16T10:16:18.716Z,3.70
2019-03-16T10:19:20.672Z,4.40
2019-03-16T10:22:22.760Z,3.53
2019-03-16T10:25:24.699Z,3.20
2019-03-16T10:28:26.691Z,4.23
2019-03-16T10:31:28.679Z,3.03
2019-03-16T10:34:30.659Z,4.63
2019-03-16T10:37:32.778Z,4.53
2019-03-16T10:40:34.801Z,3.50
2019-03-16T10:43:36.710Z,3.47
2019-03-16T10:46:38.637Z,2.73
2019-03-16T10:49:40.577Z,3.40
2019-03-16T10:52:42.547Z,4.30
2019-03-16T10:55:44.565Z,3.97
2019-03-16T10:58:55.980Z,3.73
2019-03-16T11:01:50.498Z,3.37
2019-03-16T11:04:52.495Z,3.40
2019-03-16T11:07:55.838Z,3.73
2019-03-16T11:10:58.044Z,3.77
2019-03-16T11:14:00.007Z,5.07
2019-03-16T11:17:01.968Z,3.77
2019-03-16T11:20:07.604Z,3.70
2019-03-16T11:23:09.636Z,3.30
2019-03-16T11:26:11.688Z,3.67
2019-03-16T11:29:13.797Z,3.70
2019-03-16T11:32:15.773Z,5.57
2019-03-16T11:35:17.790Z,3.83
2019-03-16T11:38:19.902Z,3.50
2019-03-16T11:41:21.877Z,2.90
2019-03-16T11:44:23.858Z,2.93
2019-03-16T11:47:25.869Z,3.27
2019-03-16T11:50:27.832Z,4.23
2019-03-16T11:53:30.018Z,2.60
2019-03-16T11:56:32.003Z,3.00
2019-03-16T11:59:33.961Z,2.50
2019-03-16T12:02:35.859Z,2.70
2019-03-16T12:05:37.801Z,2.80
2019-03-16T12:08:39.950Z,2.47
2019-03-16T12:11:41.944Z,6.17
2019-03-16T12:14:43.874Z,2.47
2019-03-16T12:17:46.079Z,3.37
2019-03-16T12:20:48.003Z,3.00
2019-03-16T12:23:49.960Z,2.60
2019-03-16T12:26:51.925Z,1.90
2019-03-16T12:29:53.877Z,2.73
2019-03-16T12:32:55.836Z,1.50
2019-03-16T12:35:58.000Z,1.77
2019-03-16T12:39:00.036Z,3.10
2019-03-16T12:42:02.029Z,2.20
2019-03-16T12:45:10.485Z,4.53
2019-03-16T12:48:12.372Z,2.30
2019-03-16T12:51:14.305Z,2.13
2019-03-16T12:54:16.238Z,1.57
2019-03-16T12:57:18.212Z,1.80
2019-03-16T13:00:20.222Z,1.80
2019-03-16T13:03:22.283Z,2.83
2019-03-16T13:06:25.511Z,1.93
2019-03-16T13:09:30.486Z,2.03
2019-03-16T13:12:32.452Z,2.83
2019-03-16T13:15:34.365Z,1.97
2019-03-16T13:18:36.910Z,2.00
2019-03-16T13:21:38.989Z,1.90
2019-03-16T13:24:41.003Z,2.87
2019-03-16T13:27:42.949Z,1.87
2019-03-16T13:30:44.942Z,2.10
2019-03-16T13:33:47.023Z,2.17
2019-03-16T13:36:49.047Z,1.83
2019-03-16T13:39:51.169Z,1.50
2019-03-16T13:42:53.238Z,1.63
2019-03-16T13:45:55.199Z,1.87
2019-03-16T13:48:57.154Z,1.80
2019-03-16T13:51:59.084Z,3.37
2019-03-16T13:55:01.466Z,6.90
2019-03-16T13:58:04.946Z,2.00
2019-03-16T14:01:07.012Z,1.60
2019-03-16T14:04:08.985Z,2.10
2019-03-16T14:07:12.274Z,6.27
2019-03-16T14:10:19.192Z,2.40
2019-03-16T14:13:21.158Z,2.10
2019-03-16T14:16:23.149Z,1.80
2019-03-16T14:19:25.472Z,2.37
2019-03-16T14:22:28.592Z,3.40
2019-03-16T14:25:30.584Z,1.53
2019-03-16T14:28:33.076Z,1.90
2019-03-16T14:31:35.296Z,1.70
2019-03-16T14:34:37.253Z,1.93
2019-03-16T14:37:39.563Z,2.10
2019-03-16T14:40:41.641Z,4.77
2019-03-16T14:43:43.555Z,2.07
2019-03-16T14:46:45.519Z,3.17
2019-03-16T14:49:47.473Z,2.00
2019-03-16T14:52:49.395Z,2.17
2019-03-16T14:55:51.318Z,3.27
2019-03-16T14:58:53.315Z,6.37
2019-03-16T15:01:55.329Z,5.30
2019-03-16T15:04:57.232Z,5.47
2019-03-16T15:07:59.162Z,4.90
2019-03-16T15:11:01.276Z,5.50
2019-03-16T15:14:03.522Z,6.00
2019-03-16T15:17:05.435Z,5.73
2019-03-16T15:20:09.692Z,5.57
2019-03-16T15:23:11.673Z,4.63
2019-03-16T15:26:13.728Z,7.80
2019-03-16T15:29:15.670Z,3.90
2019-03-16T15:32:17.703Z,4.17
2019-03-16T15:35:19.654Z,4.53
2019-03-16T15:38:22.176Z,4.67
2019-03-16T15:41:24.172Z,3.70
2019-03-16T15:44:26.104Z,3.80
2019-03-16T15:47:29.999Z,3.60
2019-03-16T15:50:31.932Z,3.70
2019-03-16T15:53:33.956Z,4.50
2019-03-16T15:56:35.980Z,8.77
2019-03-16T15:59:39.717Z,6.77
2019-03-16T16:02:41.758Z,7.93
2019-03-16T16:05:43.761Z,4.00
2019-03-16T16:08:45.855Z,4.73
2019-03-16T16:11:48.071Z,3.77
2019-03-16T16:14:50.078Z,4.53
2019-03-16T16:17:52.094Z,3.83
2019-03-16T16:20:54.157Z,4.60
2019-03-16T16:23:56.088Z,4.60
2019-03-16T16:26:57.997Z,4.63
2019-03-16T16:30:03.867Z,4.80
2019-03-16T16:33:06.324Z,5.97
2019-03-16T16:36:08.683Z,5.50
2019-03-16T16:39:14.495Z,5.83
2019-03-16T16:42:16.853Z,8.13
2019-03-16T16:45:18.867Z,10.23
2019-03-16T16:48:21.419Z,6.90
2019-03-16T16:51:23.417Z,6.17
2019-03-16T16:54:25.379Z,5.70
2019-03-16T16:57:27.297Z,5.60
2019-03-16T17:00:29.274Z,6.00
2019-03-16T17:03:31.261Z,4.63
2019-03-16T17:06:33.198Z,4.90
2019-03-16T17:09:35.397Z,4.67
2019-03-16T17:12:37.574Z,4.23
2019-03-16T17:15:39.484Z,5.03
2019-03-16T17:18:42.491Z,4.57
2019-03-16T17:21:44.784Z,5.13
2019-03-16T17:24:46.747Z,5.33
2019-03-16T17:27:48.709Z,4.83
2019-03-16T17:30:51.822Z,4.00
2019-03-16T17:33:54.864Z,6.50
2019-03-16T17:36:56.748Z,8.80
2019-03-16T17:40:00.512Z,9.17
2019-03-16T17:43:02.532Z,8.30
2019-03-16T17:46:04.470Z,8.77
2019-03-16T17:49:06.412Z,8.67
2019-03-16T17:52:08.397Z,7.17
2019-03-16T17:55:12.889Z,7.33
2019-03-16T17:58:14.881Z,7.20
2019-03-16T18:01:16.951Z,8.90
2019-03-16T18:04:19.452Z,9.03
2019-03-16T18:07:21.525Z,8.43
2019-03-16T18:10:23.487Z,11.23
2019-03-16T18:13:27.480Z,14.77
2019-03-16T18:16:29.445Z,13.93
2019-03-16T18:19:31.505Z,14.33
2019-03-16T18:22:33.974Z,14.67
2019-03-16T18:25:37.743Z,16.67
2019-03-16T18:28:40.130Z,16.23
2019-03-16T18:31:42.105Z,16.63
2019-03-16T18:34:44.143Z,15.87
2019-03-16T18:37:46.078Z,15.87
2019-03-16T18:40:48.041Z,15.30
2019-03-16T18:43:50.128Z,15.77
2019-03-16T18:46:52.269Z,17.60
2019-03-16T18:49:54.593Z,19.87
2019-03-16T18:52:56.593Z,31.50
2019-03-16T18:56:01.297Z,24.83
2019-03-16T18:59:03.301Z,27.47
2019-03-16T19:02:05.297Z,28.03
2019-03-16T19:05:11.019Z,21.37
2019-03-16T19:08:13.062Z,19.33
2019-03-16T19:11:15.323Z,18.03
2019-03-16T19:14:18.220Z,20.03
2019-03-16T19:17:21.930Z,17.03
2019-03-16T19:20:26.996Z,15.23
2019-03-16T19:23:32.722Z,14.20
2019-03-16T19:26:34.682Z,13.97
2019-03-16T19:29:38.588Z,13.63
2019-03-16T19:32:43.124Z,14.23
2019-03-16T19:35:45.660Z,14.20
2019-03-16T19:38:47.972Z,16.60
2019-03-16T19:41:52.451Z,16.13
2019-03-16T19:44:57.053Z,16.67
2019-03-16T19:48:01.822Z,16.73
2019-03-16T19:51:04.404Z,22.03
2019-03-16T19:54:06.733Z,20.50
2019-03-16T19:57:15.871Z,19.27
2019-03-16T20:00:14.358Z,19.93
2019-03-16T20:03:16.267Z,18.60
2019-03-16T20:06:25.778Z,18.23
2019-03-16T20:09:24.701Z,17.50
2019-03-16T20:12:30.711Z,18.37
2019-03-16T20:15:32.873Z,19.77
2019-03-16T20:18:36.515Z,18.03
2019-03-16T20:21:40.104Z,18.53
2019-03-16T20:24:43.823Z,19.23
2019-03-16T20:27:45.992Z,18.83
2019-03-16T20:30:48.106Z,19.07
2019-03-16T20:33:51.960Z,17.70
2019-03-16T20:36:53.905Z,15.90
2019-03-16T20:39:55.984Z,15.40
2019-03-16T20:42:58.117Z,14.03
2019-03-16T20:46:00.576Z,14.23
2019-03-16T20:49:02.560Z,12.90
2019-03-16T20:52:04.588Z,12.63
2019-03-16T20:55:07.947Z,11.80
2019-03-16T20:58:09.948Z,13.57
2019-03-16T21:01:12.027Z,12.13
2019-03-16T21:04:14.093Z,13.57
2019-03-16T21:07:16.603Z,14.00
2019-03-16T21:10:18.839Z,14.13
2019-03-16T21:13:25.032Z,14.03
2019-03-16T21:16:27.111Z,13.30
2019-03-16T21:19:29.595Z,14.10
2019-03-16T21:22:38.543Z,15.40
2019-03-16T21:25:37.000Z,15.60
2019-03-16T21:28:39.505Z,14.03
2019-03-16T21:31:41.441Z,13.80
2019-03-16T21:34:43.548Z,14.33
2019-03-16T21:37:45.627Z,13.13
2019-03-16T21:40:48.849Z,13.03
2019-03-16T21:43:50.827Z,13.17
2019-03-16T21:46:53.906Z,11.67
2019-03-16T21:49:56.794Z,14.90
2019-03-16T21:52:58.787Z,15.93
2019-03-16T21:56:00.791Z,13.30
2019-03-16T21:59:02.737Z,11.87
2019-03-16T22:02:06.349Z,12.10
2019-03-16T22:05:08.942Z,12.20
2019-03-16T22:08:11.542Z,13.63
2019-03-16T22:11:13.519Z,13.70
2019-03-16T22:14:15.513Z,14.10
2019-03-16T22:17:17.581Z,13.93
2019-03-16T22:20:20.433Z,13.30
2019-03-16T22:23:22.490Z,12.57
2019-03-16T22:26:24.426Z,14.27
2019-03-16T22:29:26.309Z,14.87
2019-03-16T22:32:28.270Z,13.80
2019-03-16T22:35:30.270Z,14.77
2019-03-16T22:38:32.260Z,12.33
2019-03-16T22:41:34.196Z,13.10
2019-03-16T22:44:36.115Z,12.77
2019-03-16T22:47:38.116Z,14.17
2019-03-16T22:50:40.141Z,13.10
2019-03-16T22:53:42.087Z,14.20
2019-03-16T22:56:44.013Z,13.43
2019-03-16T22:59:46.000Z,13.27
2019-03-16T23:02:47.958Z,13.00
2019-03-16T23:05:49.879Z,13.73
2019-03-16T23:08:51.872Z,13.17
2019-03-16T23:11:53.833Z,13.27
2019-03-16T23:15:09.614Z,14.20
2019-03-16T23:18:11.667Z,14.57
2019-03-16T23:21:13.708Z,13.30
2019-03-16T23:24:15.707Z,14.00
2019-03-16T23:27:17.660Z,14.27
2019-03-16T23:30:19.570Z,13.40
2019-03-16T23:33:21.622Z,14.17
2019-03-16T23:36:24.763Z,13.60
2019-03-16T23:39:27.521Z,12.33
2019-03-16T23:42:29.426Z,14.07
2019-03-16T23:45:31.446Z,15.23
2019-03-16T23:48:33.524Z,14.77
2019-03-16T23:51:35.627Z,13.53
2019-03-16T23:54:37.632Z,15.33
2019-03-16T23:57:39.873Z,14.73
